Time;durP1;ratioP1;P1;durP2;ratioP2;P2;SDS_P1;SDS_P2;PMS_P1;PMS_P2;Temp;Humidity;BMP_temperature;BMP_pressure;BME280_temperature;BME280_humidity;BME280_pressure;Samples;Min_cycle;Max_cycle;Signal;HPM_P1;HPM_P2
2020/12/18 05:00:17;;;;;;;1999.90;999.90;;;4.40;99.90;;;;;;6060008;23;20179;-80
2020/12/18 05:02:45;;;;;;;1999.90;999.90;;;4.40;99.90;;;;;;4974112;28;20212;-80
2020/12/18 05:05:12;;;;;;;1999.90;999.90;;;4.40;99.90;;;;;;4975493;28;20219;-81
2020/12/18 05:07:39;;;;;;;1999.90;999.90;;;4.40;99.90;;;;;;4975446;28;20662;-81
2020/12/18 05:10:07;;;;;;;1999.90;999.90;;;4.30;99.90;;;;;;4976137;28;20231;-80
2020/12/18 05:12:35;;;;;;;1999.90;999.90;;;4.20;99.90;;;;;;4975488;28;20217;-80
2020/12/18 05:15:02;;;;;;;1999.90;999.90;;;4.30;99.90;;;;;;4974921;28;20715;-80
2020/12/18 05:17:30;;;;;;;1999.90;999.90;;;4.40;99.90;;;;;;4975994;28;20742;-79
2020/12/18 05:19:57;;;;;;;1999.90;999.90;;;4.30;99.90;;;;;;4976447;28;20200;-79
2020/12/18 05:22:24;;;;;;;1999.90;999.90;;;4.40;99.90;;;;;;4975922;28;20736;-78
2020/12/18 05:24:53;;;;;;;1999.90;999.90;;;4.50;99.90;;;;;;4975331;28;20208;-78
2020/12/18 05:27:21;;;;;;;1999.90;999.90;;;4.50;99.90;;;;;;4977044;28;20209;-79
2020/12/18 05:29:49;;;;;;;1999.90;999.90;;;4.50;99.90;;;;;;4977400;28;20215;-79
2020/12/18 05:32:16;;;;;;;1999.90;999.90;;;4.50;99.90;;;;;;4976993;28;20283;-78
2020/12/18 05:34:44;;;;;;;1999.90;999.90;;;4.50;99.90;;;;;;4975604;28;20212;-79
2020/12/18 05:37:13;;;;;;;1999.90;999.90;;;4.40;99.90;;;;;;4974566;28;20637;-78
2020/12/18 05:39:40;;;;;;;1999.90;999.90;;;4.30;99.90;;;;;;4975271;28;20231;-77
2020/12/18 05:42:08;;;;;;;1999.90;999.90;;;4.30;99.90;;;;;;4963195;28;20228;-78
2020/12/18 05:44:35;;;;;;;1999.90;999.90;;;4.20;99.90;;;;;;4972120;28;20197;-77
2020/12/18 05:47:03;;;;;;;1999.90;999.90;;;4.10;99.90;;;;;;4973107;28;20262;-78
2020/12/18 05:49:33;;;;;;;1999.90;999.90;;;4.10;99.90;;;;;;4973189;28;20213;-79
2020/12/18 05:52:01;;;;;;;1999.90;999.90;;;4.10;99.90;;;;;;4973487;28;20299;-78
2020/12/18 05:54:33;;;;;;;1999.90;999.90;;;4.20;99.90;;;;;;4973044;28;20588;-79
2020/12/18 05:57:09;;;;;;;1999.90;999.90;;;4.30;99.90;;;;;;4977755;28;20263;-78
2020/12/18 05:59:41;;;;;;;1999.90;999.90;;;4.40;99.90;;;;;;4978034;28;20209;-78
2020/12/18 06:02:12;;;;;;;1999.90;999.90;;;4.40;99.90;;;;;;4977691;28;20290;-78
2020/12/18 06:04:39;;;;;;;1999.90;999.90;;;4.30;99.90;;;;;;4977471;28;20209;-79
2020/12/18 06:07:08;;;;;;;1999.90;999.90;;;4.40;99.90;;;;;;4957926;29;20205;-79
2020/12/18 06:09:36;;;;;;;1999.90;999.90;;;4.40;99.90;;;;;;4955923;29;20263;-78
2020/12/18 06:12:07;;;;;;;1999.90;999.90;;;4.40;99.90;;;;;;4955854;29;20240;-77
2020/12/18 06:14:35;;;;;;;1999.90;999.90;;;4.40;99.90;;;;;;4955663;28;20699;-78
2020/12/18 06:17:09;;;;;;;1999.90;999.90;;;4.40;99.90;;;;;;4958834;29;20221;-79
2020/12/18 06:19:39;;;;;;;1999.90;999.90;;;4.40;99.90;;;;;;4958642;29;20729;-78
2020/12/18 06:22:08;;;;;;;1999.90;999.90;;;4.40;99.90;;;;;;4959205;29;20221;-78
2020/12/18 06:24:41;;;;;;;1999.90;999.90;;;4.40;99.90;;;;;;4959524;29;20198;-78
2020/12/18 06:27:11;;;;;;;1999.90;999.90;;;4.40;99.90;;;;;;4957741;29;20201;-77
2020/12/18 06:29:38;;;;;;;1999.90;999.90;;;4.40;99.90;;;;;;4959086;29;20212;-79
2020/12/18 06:32:23;;;;;;;1999.90;999.90;;;4.30;99.90;;;;;;4959932;29;20276;-77
2020/12/18 06:34:50;;;;;;;1999.90;999.90;;;4.40;99.90;;;;;;4957326;29;20736;-78
2020/12/18 06:37:27;;;;;;;1999.90;999.90;;;4.40;99.90;;;;;;4957327;29;20671;-78
2020/12/18 06:39:54;;;;;;;1999.90;999.90;;;4.30;99.90;;;;;;4956571;29;20205;-78
2020/12/18 06:42:22;;;;;;;1999.90;999.90;;;4.30;99.90;;;;;;4956794;29;20228;-78
2020/12/18 06:44:50;;;;;;;1999.90;999.90;;;4.20;99.90;;;;;;4956044;29;20209;-77
2020/12/18 06:47:19;;;;;;;1999.90;999.90;;;4.20;99.90;;;;;;4956198;29;20629;-77
2020/12/18 06:50:10;;;;;;;1999.90;999.90;;;4.20;99.90;;;;;;4955736;29;20225;-77
2020/12/18 06:52:51;;;;;;;1999.90;999.90;;;4.20;99.90;;;;;;4958044;29;20205;-78
2020/12/18 06:55:39;;;;;;;1999.90;999.90;;;4.20;99.90;;;;;;4959660;29;20240;-78
2020/12/18 06:58:19;;;;;;;1999.90;999.90;;;4.30;99.90;;;;;;4958202;29;20206;-78
2020/12/18 07:00:51;;;;;;;1999.90;999.90;;;4.30;99.90;;;;;;4957465;29;20575;-78
2020/12/18 07:03:38;;;;;;;1999.90;999.90;;;4.30;99.90;;;;;;4974638;28;20208;-78
2020/12/18 07:06:08;;;;;;;1999.90;999.90;;;4.30;99.90;;;;;;4986860;28;20197;-79
2020/12/18 07:08:37;;;;;;;1999.90;999.90;;;4.40;99.90;;;;;;4981237;28;20197;-78
2020/12/18 07:11:07;;;;;;;1999.90;999.90;;;4.40;99.90;;;;;;4979029;28;20717;-78
2020/12/18 07:13:34;;;;;;;1999.90;999.90;;;4.50;99.90;;;;;;4980230;28;20259;-78
2020/12/18 07:16:06;;;;;;;1999.90;999.90;;;4.50;99.90;;;;;;4977795;28;20224;-78
2020/12/18 07:18:35;;;;;;;1999.90;999.90;;;4.50;99.90;;;;;;4978439;28;20271;-78
2020/12/18 07:21:04;;;;;;;1999.90;999.90;;;4.40;99.90;;;;;;4976717;28;20765;-78
2020/12/18 07:23:32;;;;;;;1999.90;999.90;;;4.40;99.90;;;;;;4977252;28;20208;-78
2020/12/18 07:26:02;;;;;;;1999.90;999.90;;;4.30;99.90;;;;;;4975381;28;20200;-79
2020/12/18 07:28:31;;;;;;;1999.90;999.90;;;4.30;99.90;;;;;;4976501;28;20216;-76
2020/12/18 07:30:59;;;;;;;1999.90;999.90;;;4.30;99.90;;;;;;4975570;28;20229;-76
2020/12/18 07:33:27;;;;;;;1999.90;999.90;;;4.30;99.90;;;;;;4974405;28;20244;-76
2020/12/18 07:35:55;;;;;;;1999.90;999.90;;;4.30;99.90;;;;;;4974267;28;20583;-77
2020/12/18 07:38:24;;;;;;;1999.90;999.90;;;4.40;99.90;;;;;;4975556;28;20229;-79
2020/12/18 07:40:53;;;;;;;1999.90;999.90;;;4.40;99.90;;;;;;4974958;28;20235;-78
2020/12/18 07:43:22;;;;;;;1999.90;999.90;;;4.50;99.90;;;;;;4972702;28;20585;-78
2020/12/18 07:45:51;;;;;;;1999.90;999.90;;;4.50;99.90;;;;;;4972863;28;20283;-78
2020/12/18 07:48:19;;;;;;;1999.90;999.90;;;4.60;99.90;;;;;;4974227;28;20209;-77
2020/12/18 07:50:57;;;;;;;1999.90;999.90;;;4.60;99.90;;;;;;4974568;28;20723;-77
2020/12/18 07:53:25;;;;;;;1999.90;999.90;;;4.60;99.90;;;;;;4974535;28;20621;-77
2020/12/18 07:56:03;;;;;;;1999.90;999.90;;;4.70;99.90;;;;;;4974361;28;20200;-77
2020/12/18 07:58:31;;;;;;;1999.90;999.90;;;4.70;99.90;;;;;;4974053;28;20271;-77
2020/12/18 08:01:06;;;;;;;1999.90;999.90;;;4.70;99.90;;;;;;4973913;28;20233;-77
2020/12/18 08:03:33;;;;;;;1999.90;999.90;;;4.70;99.90;;;;;;4974024;28;20239;-78
2020/12/18 08:06:04;;;;;;;1999.90;999.90;;;4.80;99.90;;;;;;4974028;28;20620;-77
2020/12/18 08:08:32;;;;;;;1999.90;999.90;;;4.80;99.90;;;;;;4973727;28;20212;-77
2020/12/18 08:11:01;;;;;;;1999.90;999.90;;;4.80;99.90;;;;;;4973961;28;20307;-77
2020/12/18 08:13:31;;;;;;;1999.90;999.90;;;4.80;99.90;;;;;;4974081;28;20299;-78
2020/12/18 08:16:12;;;;;;;1999.90;999.90;;;4.80;99.90;;;;;;4973891;28;20293;-77
2020/12/18 08:18:44;;;;;;;1999.90;999.90;;;4.80;99.90;;;;;;4972785;28;20197;-78
2020/12/18 08:21:11;;;;;;;1999.90;999.90;;;4.80;99.90;;;;;;4970584;28;20290;-78
2020/12/18 08:23:45;;;;;;;1999.90;999.90;;;4.90;99.90;;;;;;4973543;28;20203;-78
2020/12/18 08:26:12;;;;;;;1999.90;999.90;;;4.90;99.90;;;;;;4973388;28;20625;-77
2020/12/18 08:28:42;;;;;;;1999.90;999.90;;;4.90;99.90;;;;;;4972938;28;20204;-77
2020/12/18 08:31:10;;;;;;;1999.90;999.90;;;5.00;99.90;;;;;;4973091;28;20229;-78
2020/12/18 08:33:46;;;;;;;1999.90;999.90;;;5.00;99.90;;;;;;4972928;28;20286;-77
2020/12/18 08:36:13;;;;;;;1999.90;999.90;;;5.00;99.90;;;;;;4971506;28;20239;-77
2020/12/18 08:38:40;;;;;;;1999.90;999.90;;;5.00;99.90;;;;;;4972522;28;20235;-77
2020/12/18 08:41:07;;;;;;;1999.90;999.90;;;5.10;99.90;;;;;;4970489;28;20621;-78
2020/12/18 08:43:34;;;;;;;1999.90;999.90;;;5.10;99.90;;;;;;4972688;28;20614;-78
2020/12/18 08:46:02;;;;;;;1999.90;999.90;;;5.00;99.90;;;;;;4971860;28;20209;-76
2020/12/18 08:48:29;;;;;;;1999.90;999.90;;;5.10;99.90;;;;;;4973162;28;20210;-77
2020/12/18 08:51:01;;;;;;;1999.90;999.90;;;5.20;99.90;;;;;;4972777;28;20315;-78
2020/12/18 08:53:34;;;;;;;1999.90;999.90;;;5.20;99.90;;;;;;4973168;28;20227;-78
2020/12/18 08:56:04;;;;;;;1999.90;999.90;;;5.30;99.90;;;;;;4973189;28;20729;-79
2020/12/18 08:58:33;;;;;;;1999.90;999.90;;;5.30;99.90;;;;;;4972740;28;20205;-77
2020/12/18 09:01:22;;;;;;;1999.90;999.90;;;5.40;99.90;;;;;;4971386;28;20256;-77
2020/12/18 09:03:49;;;;;;;1999.90;999.90;;;5.50;99.90;;;;;;4973178;28;20213;-78
2020/12/18 09:06:17;;;;;;;1999.90;999.90;;;5.50;99.90;;;;;;4973338;28;20267;-78
2020/12/18 09:08:44;;;;;;;1999.90;999.90;;;5.60;99.90;;;;;;4972838;28;20201;-78
2020/12/18 09:11:11;;;;;;;1999.90;999.90;;;5.60;99.90;;;;;;4972599;28;20233;-77
2020/12/18 09:13:38;;;;;;;1999.90;999.90;;;5.60;99.90;;;;;;4973235;28;20204;-77
2020/12/18 09:16:07;;;;;;;1999.90;999.90;;;5.70;99.90;;;;;;4972892;28;20693;-77
2020/12/18 09:18:37;;;;;;;1999.90;999.90;;;5.70;99.90;;;;;;4972692;28;20208;-78
2020/12/18 09:21:12;;;;;;;1999.90;999.90;;;5.70;99.90;;;;;;4972816;28;20216;-78
2020/12/18 09:23:40;;;;;;;1999.90;999.90;;;5.70;99.90;;;;;;4972941;28;20200;-77
2020/12/18 09:26:24;;;;;;;1999.90;999.90;;;5.70;99.90;;;;;;4971752;28;20204;-77
2020/12/18 09:28:51;;;;;;;1999.90;999.90;;;5.90;99.90;;;;;;4970808;28;20208;-77
2020/12/18 09:31:19;;;;;;;1999.90;999.90;;;5.90;99.90;;;;;;4970831;28;20714;-77
2020/12/18 09:33:46;;;;;;;1999.90;999.90;;;6.00;99.90;;;;;;4970855;28;20204;-76
2020/12/18 09:36:15;;;;;;;1999.90;999.90;;;6.00;99.90;;;;;;4970450;28;20201;-77
2020/12/18 09:38:44;;;;;;;1999.90;999.90;;;6.00;99.90;;;;;;4970980;28;20287;-76
2020/12/18 09:41:13;;;;;;;1999.90;999.90;;;6.00;99.90;;;;;;4970731;28;20221;-79
2020/12/18 09:43:40;;;;;;;1999.90;999.90;;;6.10;99.90;;;;;;4972934;28;20295;-77
2020/12/18 09:46:11;;;;;;;1999.90;999.90;;;6.10;99.90;;;;;;4972583;28;20255;-77
2020/12/18 09:48:39;;;;;;;1999.90;999.90;;;6.20;99.90;;;;;;4973638;28;20236;-77
2020/12/18 09:51:07;;;;;;;1999.90;999.90;;;6.30;99.90;;;;;;4976009;28;20764;-77
2020/12/18 09:53:34;;;;;;;1999.90;999.90;;;6.30;99.90;;;;;;4976435;28;20208;-76
2020/12/18 09:56:01;;;;;;;1999.90;999.90;;;6.40;99.90;;;;;;4976149;28;20666;-77
2020/12/18 09:58:28;;;;;;;1999.90;999.90;;;6.50;99.90;;;;;;4976012;28;20670;-77
2020/12/18 10:00:55;;;;;;;1999.90;999.90;;;6.60;99.90;;;;;;4975894;28;20656;-78
2020/12/18 10:03:22;;;;;;;1999.90;999.90;;;6.70;99.90;;;;;;4976589;28;20208;-77
2020/12/18 10:05:49;;;;;;;1999.90;999.90;;;6.80;99.90;;;;;;4976163;28;20685;-77
2020/12/18 10:08:17;;;;;;;1999.90;999.90;;;6.90;99.90;;;;;;4975999;28;20205;-77
2020/12/18 10:10:44;;;;;;;1999.90;999.90;;;7.00;99.90;;;;;;4975821;28;20232;-75
2020/12/18 10:13:11;;;;;;;1999.90;999.90;;;7.10;99.90;;;;;;4975906;28;20209;-77
2020/12/18 10:15:38;;;;;;;1999.90;999.90;;;7.10;99.90;;;;;;4976071;28;20213;-77
2020/12/18 10:18:05;;;;;;;1999.90;999.90;;;7.10;99.90;;;;;;4975523;28;20209;-77
2020/12/18 10:20:32;;;;;;;1999.90;999.90;;;7.10;99.90;;;;;;4975764;28;20228;-78
2020/12/18 10:22:59;;;;;;;1999.90;999.90;;;7.20;99.90;;;;;;4976058;28;20208;-77
2020/12/18 10:25:27;;;;;;;1999.90;999.90;;;7.30;99.90;;;;;;4975965;28;20205;-77
2020/12/18 10:27:54;;;;;;;1999.90;999.90;;;7.40;99.90;;;;;;4975473;28;20204;-78
2020/12/18 10:30:21;;;;;;;1999.90;999.90;;;7.40;99.90;;;;;;4975545;28;20204;-78
2020/12/18 10:32:50;;;;;;;1999.90;999.90;;;7.40;99.90;;;;;;4975852;28;20221;-77
2020/12/18 10:35:17;;;;;;;1999.90;999.90;;;7.60;99.90;;;;;;4976856;28;20279;-78
2020/12/18 10:37:46;;;;;;;1999.90;999.90;;;7.60;99.90;;;;;;4976155;28;20238;-78
2020/12/18 10:40:14;;;;;;;1999.90;999.90;;;7.70;99.90;;;;;;4962109;28;20209;-78
2020/12/18 10:42:42;;;;;;;1999.90;999.90;;;7.70;99.90;;;;;;4976701;28;20236;-78
2020/12/18 10:45:09;;;;;;;1999.90;999.90;;;7.80;99.90;;;;;;4975936;28;20205;-77
2020/12/18 10:47:36;;;;;;;1999.90;999.90;;;7.80;99.90;;;;;;4977973;28;20267;-78
2020/12/18 10:50:04;;;;;;;1999.90;999.90;;;7.90;99.90;;;;;;4975611;28;20730;-78
2020/12/18 10:52:31;;;;;;;1999.90;999.90;;;7.90;99.90;;;;;;4975310;28;20224;-78
2020/12/18 10:54:57;;;;;;;1999.90;999.90;;;7.90;99.90;;;;;;4975852;28;20275;-78
2020/12/18 10:57:24;;;;;;;1999.90;999.90;;;8.00;99.90;;;;;;4975298;28;20204;-77
2020/12/18 10:59:52;;;;;;;1999.90;999.90;;;8.10;99.90;;;;;;4974665;28;20259;-79
2020/12/18 11:02:19;;;;;;;1999.90;999.90;;;8.20;99.90;;;;;;4976653;28;20236;-77
2020/12/18 11:04:46;;;;;;;1999.90;999.90;;;8.10;99.90;;;;;;4976770;28;20204;-78
2020/12/18 11:07:12;;;;;;;1999.90;999.90;;;8.20;99.90;;;;;;4976398;28;20205;-78
2020/12/18 11:09:39;;;;;;;1999.90;999.90;;;8.20;99.90;;;;;;4974833;28;20244;-79
2020/12/18 11:12:06;;;;;;;1999.90;999.90;;;8.30;99.90;;;;;;4975635;28;20287;-78
2020/12/18 11:14:33;;;;;;;1999.90;999.90;;;8.40;99.90;;;;;;4975797;28;20209;-80
2020/12/18 11:17:01;;;;;;;1999.90;999.90;;;8.40;99.90;;;;;;4976514;28;20204;-78
2020/12/18 11:19:28;;;;;;;1999.90;999.90;;;8.50;99.90;;;;;;4975225;28;20208;-79
2020/12/18 11:21:55;;;;;;;1999.90;999.90;;;8.50;99.90;;;;;;4975732;28;20236;-78
2020/12/18 11:24:22;;;;;;;1999.90;999.90;;;8.60;99.90;;;;;;4976733;28;20728;-78
2020/12/18 11:26:53;;;;;;;1999.90;999.90;;;8.60;99.90;;;;;;4975210;28;20213;-79
2020/12/18 11:29:20;;;;;;;1999.90;999.90;;;8.70;99.90;;;;;;4974361;28;20595;-80
2020/12/18 11:31:48;;;;;;;1999.90;999.90;;;8.70;99.90;;;;;;4975387;28;20225;-78
2020/12/18 11:34:19;;;;;;;1999.90;999.90;;;8.70;99.90;;;;;;4974710;28;20204;-80
2020/12/18 11:36:46;;;;;;;1999.90;999.90;;;8.80;99.90;;;;;;4975049;28;20260;-78
2020/12/18 11:39:13;;;;;;;1999.90;999.90;;;8.80;99.90;;;;;;4974088;28;20673;-77
2020/12/18 11:41:40;;;;;;;1999.90;999.90;;;8.90;99.90;;;;;;4974528;28;20268;-80
2020/12/18 11:44:07;;;;;;;1999.90;999.90;;;8.90;99.90;;;;;;4974632;28;20269;-79
2020/12/18 11:46:34;;;;;;;1999.90;999.90;;;8.90;99.90;;;;;;4974479;28;20204;-77
2020/12/18 11:49:00;;;;;;;1999.90;999.90;;;8.90;99.90;;;;;;4974116;28;20205;-77
2020/12/18 11:51:29;;;;;;;1999.90;999.90;;;9.00;99.90;;;;;;4974251;28;20295;-77
2020/12/18 11:53:57;;;;;;;1999.90;999.90;;;9.00;99.90;;;;;;4974465;28;20267;-78
2020/12/18 11:56:25;;;;;;;1999.90;999.90;;;9.00;99.90;;;;;;4974103;28;20688;-79
2020/12/18 11:58:52;;;;;;;1999.90;999.90;;;9.10;99.90;;;;;;4973814;28;20205;-77
2020/12/18 12:01:22;;;;;;;1999.90;999.90;;;9.10;99.90;;;;;;4981269;28;20283;-79
2020/12/18 12:03:49;;;;;;;1999.90;999.90;;;9.20;99.90;;;;;;4993436;28;20207;-78
2020/12/18 12:06:16;;;;;;;1999.90;999.90;;;9.20;99.90;;;;;;4993629;28;20348;-80
2020/12/18 12:08:44;;;;;;;1999.90;999.90;;;9.40;99.90;;;;;;4993888;28;20204;-79
2020/12/18 12:11:12;;;;;;;1999.90;999.90;;;9.40;99.90;;;;;;4993793;28;20224;-79
2020/12/18 12:13:39;;;;;;;1999.90;999.90;;;9.40;99.90;;;;;;4995910;28;20204;-79
2020/12/18 12:16:06;;;;;;;1999.90;999.90;;;9.50;99.90;;;;;;4998198;28;20200;-79
2020/12/18 12:18:33;;;;;;;1999.90;999.90;;;9.60;99.90;;;;;;4999849;28;20212;-80
2020/12/18 12:21:00;;;;;;;1999.90;999.90;;;9.60;99.90;;;;;;4992569;28;20224;-80
2020/12/18 12:23:27;;;;;;;1999.90;999.90;;;9.50;99.90;;;;;;4978132;28;20200;-80
2020/12/18 12:25:55;;;;;;;1999.90;999.90;;;9.40;99.90;;;;;;4980587;28;20209;-80
2020/12/18 12:28:21;;;;;;;1999.90;999.90;;;9.40;99.90;;;;;;4975556;28;20205;-80
2020/12/18 12:30:48;;;;;;;1999.90;999.90;;;9.40;99.90;;;;;;4976024;28;20232;-79
2020/12/18 12:33:15;;;;;;;1999.90;999.90;;;9.40;99.90;;;;;;4975210;28;20204;-80
2020/12/18 12:35:43;;;;;;;1999.90;999.90;;;9.30;99.90;;;;;;4974994;28;20300;-79
2020/12/18 12:38:12;;;;;;;1999.90;999.90;;;9.40;99.90;;;;;;4976851;28;20217;-79
2020/12/18 12:40:39;;;;;;;1999.90;999.90;;;9.40;99.90;;;;;;4974667;28;20705;-79
2020/12/18 12:43:07;;;;;;;1999.90;999.90;;;9.40;99.90;;;;;;4974845;28;20200;-80
2020/12/18 12:45:34;;;;;;;1999.90;999.90;;;9.40;99.90;;;;;;4976807;28;20263;-80
2020/12/18 12:48:00;;;;;;;1999.90;999.90;;;9.40;99.90;;;;;;4976233;28;20211;-78
2020/12/18 12:50:44;;;;;;;1999.90;999.90;;;9.30;99.90;;;;;;4975843;28;20688;-78
2020/12/18 12:53:10;;;;;;;1999.90;999.90;;;9.30;99.90;;;;;;4976074;28;20643;-80
2020/12/18 12:55:38;;;;;;;1999.90;999.90;;;9.20;99.90;;;;;;4975074;28;20214;-79
2020/12/18 12:58:12;;;;;;;1999.90;999.90;;;9.30;99.90;;;;;;4986952;28;20207;-78
2020/12/18 13:00:39;;;;;;;1999.90;999.90;;;9.30;99.90;;;;;;4996691;28;20332;-78
2020/12/18 13:03:06;;;;;;;1999.90;999.90;;;9.20;99.90;;;;;;4995830;28;20212;-79
2020/12/18 13:05:33;;;;;;;1999.90;999.90;;;9.20;99.90;;;;;;4988290;28;20197;-80
2020/12/18 13:08:00;;;;;;;1999.90;999.90;;;9.20;99.90;;;;;;4974225;28;20215;-80
2020/12/18 13:10:27;;;;;;;1999.90;999.90;;;9.10;99.90;;;;;;4974345;28;20255;-79
2020/12/18 13:12:54;;;;;;;1999.90;999.90;;;9.20;99.90;;;;;;4975186;28;20267;-78
2020/12/18 13:15:22;;;;;;;1999.90;999.90;;;9.10;99.90;;;;;;4977546;28;20213;-81
2020/12/18 13:17:49;;;;;;;1999.90;999.90;;;9.00;99.90;;;;;;4975798;28;20267;-80
2020/12/18 13:20:16;;;;;;;1999.90;999.90;;;9.10;99.90;;;;;;4976070;28;20204;-78
2020/12/18 13:22:42;;;;;;;1999.90;999.90;;;9.00;99.90;;;;;;4980625;28;20196;-78
2020/12/18 13:25:09;;;;;;;1999.90;999.90;;;9.00;99.90;;;;;;4982465;28;20205;-82
2020/12/18 13:27:36;;;;;;;1999.90;999.90;;;8.90;99.90;;;;;;4978914;28;20204;-80
2020/12/18 13:30:05;;;;;;;1999.90;999.90;;;8.90;99.90;;;;;;4979197;28;20255;-79
2020/12/18 13:32:32;;;;;;;1999.90;999.90;;;8.90;99.90;;;;;;4978603;28;20232;-79
2020/12/18 13:34:59;;;;;;;1999.90;999.90;;;8.90;99.90;;;;;;4979112;28;20255;-79
2020/12/18 13:37:26;;;;;;;1999.90;999.90;;;8.90;99.90;;;;;;4979527;28;20204;-79
2020/12/18 13:39:53;;;;;;;1999.90;999.90;;;8.80;99.90;;;;;;4977957;28;20655;-80
2020/12/18 13:42:20;;;;;;;1999.90;999.90;;;8.90;99.90;;;;;;4978409;28;20217;-79
2020/12/18 13:44:47;;;;;;;1999.90;999.90;;;8.80;99.90;;;;;;4978806;28;20259;-80
2020/12/18 13:47:14;;;;;;;1999.90;999.90;;;8.70;99.90;;;;;;4981571;28;20212;-79
2020/12/18 13:49:42;;;;;;;1999.90;999.90;;;8.70;99.90;;;;;;4981655;28;20673;-80
2020/12/18 13:52:09;;;;;;;1999.90;999.90;;;8.70;99.90;;;;;;4983350;28;20232;-81
2020/12/18 13:54:37;;;;;;;1999.90;999.90;;;8.60;99.90;;;;;;4978368;28;20218;-79
2020/12/18 13:57:04;;;;;;;1999.90;999.90;;;8.60;99.90;;;;;;4980754;28;20252;-80
2020/12/18 13:59:31;;;;;;;1999.90;999.90;;;8.60;99.90;;;;;;4977356;28;20670;-80
2020/12/18 14:01:58;;;;;;;1999.90;999.90;;;8.50;99.90;;;;;;4980065;28;20627;-81
2020/12/18 14:04:25;;;;;;;1999.90;999.90;;;8.50;99.90;;;;;;4980717;28;20208;-80
2020/12/18 14:06:56;;;;;;;1999.90;999.90;;;8.40;99.90;;;;;;4978695;28;20209;-79
2020/12/18 14:09:24;;;;;;;1999.90;999.90;;;8.30;99.90;;;;;;4978748;28;20243;-79
2020/12/18 14:11:51;;;;;;;1999.90;999.90;;;8.10;99.90;;;;;;4977743;28;20682;-79
2020/12/18 14:14:18;;;;;;;1999.90;999.90;;;8.00;99.90;;;;;;4977315;28;20209;-80
2020/12/18 14:16:45;;;;;;;1999.90;999.90;;;7.90;99.90;;;;;;4977673;28;20621;-79
2020/12/18 14:19:12;;;;;;;1999.90;999.90;;;7.80;99.90;;;;;;4977808;28;20216;-80
2020/12/18 14:21:39;;;;;;;1999.90;999.90;;;7.80;99.90;;;;;;4977595;28;20279;-79
2020/12/18 14:24:07;;;;;;;1999.90;999.90;;;7.70;99.90;;;;;;4978475;28;20255;-80
2020/12/18 14:26:34;;;;;;;1999.90;999.90;;;7.70;99.90;;;;;;4978302;28;20208;-79
2020/12/18 14:29:01;;;;;;;1999.90;999.90;;;7.60;99.90;;;;;;4980717;28;20205;-77
2020/12/18 14:31:28;;;;;;;1999.90;999.90;;;7.50;99.90;;;;;;4977288;28;20221;-80
2020/12/18 14:33:55;;;;;;;1999.90;999.90;;;7.40;99.90;;;;;;4979165;28;20208;-79
2020/12/18 14:36:22;;;;;;;1999.90;999.90;;;7.30;99.90;;;;;;4978046;28;20208;-79
2020/12/18 14:38:49;;;;;;;1999.90;999.90;;;7.30;99.90;;;;;;4977174;28;20227;-79
2020/12/18 14:41:17;;;;;;;1999.90;999.90;;;7.10;99.90;;;;;;4977013;28;20229;-79
2020/12/18 14:43:44;;;;;;;1999.90;999.90;;;7.00;99.90;;;;;;4978599;28;20724;-79
2020/12/18 14:46:10;;;;;;;1999.90;999.90;;;7.00;99.90;;;;;;4976182;28;20212;-81
2020/12/18 14:48:37;;;;;;;1999.90;999.90;;;7.00;99.90;;;;;;4975502;28;20197;-79
2020/12/18 14:51:06;;;;;;;1999.90;999.90;;;6.90;99.90;;;;;;4976643;28;20641;-79
2020/12/18 14:53:34;;;;;;;1999.90;999.90;;;6.80;99.90;;;;;;4979035;28;20225;-79
2020/12/18 14:56:01;;;;;;;1999.90;999.90;;;6.70;99.90;;;;;;4977910;28;20244;-79
2020/12/18 14:58:29;;;;;;;1999.90;999.90;;;6.60;99.90;;;;;;4978785;28;20209;-80
2020/12/18 15:00:55;;;;;;;1999.90;999.90;;;6.50;99.90;;;;;;4979945;28;20236;-79
2020/12/18 15:03:23;;;;;;;1999.90;999.90;;;6.50;99.90;;;;;;4977751;28;20618;-81
2020/12/18 15:05:53;;;;;;;1999.90;999.90;;;6.60;99.90;;;;;;4976588;28;20311;-78
2020/12/18 15:08:19;;;;;;;1999.90;999.90;;;6.50;99.90;;;;;;4977109;28;20637;-78
2020/12/18 15:10:46;;;;;;;1999.90;999.90;;;6.50;99.90;;;;;;4975927;28;20304;-78
2020/12/18 15:13:29;;;;;;;1999.90;999.90;;;6.40;99.90;;;;;;4976006;28;20771;-79
2020/12/18 15:15:56;;;;;;;1999.90;999.90;;;6.40;99.90;;;;;;4977810;28;20268;-80
2020/12/18 15:18:27;;;;;;;1999.90;999.90;;;6.30;99.90;;;;;;4978081;28;20200;-77
2020/12/18 15:20:54;;;;;;;1999.90;999.90;;;6.20;99.90;;;;;;4977787;28;20702;-79
2020/12/18 15:23:21;;;;;;;1999.90;999.90;;;6.10;99.90;;;;;;4977560;28;20205;-78
2020/12/18 15:25:47;;;;;;;1999.90;999.90;;;6.10;99.90;;;;;;4976460;28;20640;-81
2020/12/18 15:28:14;;;;;;;1999.90;999.90;;;6.00;99.90;;;;;;4976608;28;20733;-78
2020/12/18 15:30:42;;;;;;;1999.90;999.90;;;5.90;99.90;;;;;;4975243;28;20725;-78
2020/12/18 15:33:09;;;;;;;1999.90;999.90;;;5.90;99.90;;;;;;4975545;28;20224;-79
2020/12/18 15:35:36;;;;;;;1999.90;999.90;;;5.90;99.90;;;;;;4975195;28;20205;-79
2020/12/18 15:38:03;;;;;;;1999.90;999.90;;;5.90;99.90;;;;;;4975783;28;20204;-79
2020/12/18 15:40:29;;;;;;;1999.90;999.90;;;5.90;99.90;;;;;;4977171;28;20263;-79
2020/12/18 15:42:56;;;;;;;1999.90;999.90;;;5.90;99.90;;;;;;4978240;28;20196;-79
2020/12/18 15:45:23;;;;;;;1999.90;999.90;;;5.90;99.90;;;;;;4978287;28;20205;-78
2020/12/18 15:47:51;;;;;;;1999.90;999.90;;;5.90;99.90;;;;;;4975197;28;20658;-80
2020/12/18 15:50:18;;;;;;;1999.90;999.90;;;5.90;99.90;;;;;;4975910;28;20205;-78
2020/12/18 15:52:45;;;;;;;1999.90;999.90;;;5.80;99.90;;;;;;4977490;28;20255;-79
2020/12/18 15:55:12;;;;;;;1999.90;999.90;;;5.70;99.90;;;;;;4977003;28;20201;-79
2020/12/18 15:57:39;;;;;;;1999.90;999.90;;;5.70;99.90;;;;;;4976181;28;20618;-80
2020/12/18 16:00:06;;;;;;;1999.90;999.90;;;5.60;99.90;;;;;;4976077;28;20239;-77
2020/12/18 16:02:33;;;;;;;1999.90;999.90;;;5.50;99.90;;;;;;4975508;28;20232;-78
2020/12/18 16:05:01;;;;;;;1999.90;999.90;;;5.40;99.90;;;;;;4975558;28;20201;-77
2020/12/18 16:07:28;;;;;;;1999.90;999.90;;;5.30;99.90;;;;;;4974157;28;20204;-78
2020/12/18 16:09:55;;;;;;;1999.90;999.90;;;5.30;99.90;;;;;;4974012;28;20258;-77
2020/12/18 16:12:22;;;;;;;1999.90;999.90;;;5.40;99.90;;;;;;4973609;28;20701;-77
2020/12/18 16:14:49;;;;;;;1999.90;999.90;;;5.40;99.90;;;;;;4973985;28;20641;-79
2020/12/18 16:17:15;;;;;;;1999.90;999.90;;;5.30;99.90;;;;;;4961114;28;20208;-77
2020/12/18 16:19:42;;;;;;;1999.90;999.90;;;5.20;99.90;;;;;;4973772;28;20197;-78
2020/12/18 16:22:10;;;;;;;1999.90;999.90;;;5.20;99.90;;;;;;4974017;28;20233;-78
2020/12/18 16:24:37;;;;;;;1999.90;999.90;;;5.20;99.90;;;;;;4975712;28;20208;-78
2020/12/18 16:27:04;;;;;;;1999.90;999.90;;;5.10;99.90;;;;;;4974227;28;20267;-78
2020/12/18 16:29:31;;;;;;;1999.90;999.90;;;5.10;99.90;;;;;;4975832;28;20204;-78
2020/12/18 16:32:02;;;;;;;1999.90;999.90;;;5.10;99.90;;;;;;4974541;28;20291;-77
2020/12/18 16:34:29;;;;;;;1999.90;999.90;;;5.10;99.90;;;;;;4974867;28;20204;-78
2020/12/18 16:36:56;;;;;;;1999.90;999.90;;;5.20;99.90;;;;;;4973888;28;20253;-78
2020/12/18 16:39:24;;;;;;;1999.90;999.90;;;5.10;99.90;;;;;;4974634;28;20649;-77
2020/12/18 16:41:51;;;;;;;1999.90;999.90;;;5.10;99.90;;;;;;4974309;28;20228;-78
2020/12/18 16:44:17;;;;;;;1999.90;999.90;;;5.10;99.90;;;;;;4973585;28;20212;-77
2020/12/18 16:46:44;;;;;;;1999.90;999.90;;;5.10;99.90;;;;;;4973331;28;20213;-76
2020/12/18 16:49:12;;;;;;;1999.90;999.90;;;5.10;99.90;;;;;;4972865;28;20236;-77
2020/12/18 16:51:39;;;;;;;1999.90;999.90;;;5.10;99.90;;;;;;4973005;28;20275;-80
2020/12/18 16:54:06;;;;;;;1999.90;999.90;;;5.10;99.90;;;;;;4974532;28;20697;-79
2020/12/18 16:56:34;;;;;;;1999.90;999.90;;;5.10;99.90;;;;;;4973704;28;20204;-77
2020/12/18 16:59:01;;;;;;;1999.90;999.90;;;5.10;99.90;;;;;;4972854;28;20207;-77
2020/12/18 17:01:28;;;;;;;1999.90;999.90;;;5.10;99.90;;;;;;4972787;28;20287;-78
2020/12/18 17:03:55;;;;;;;1999.90;999.90;;;5.10;99.90;;;;;;4973014;28;20267;-76
2020/12/18 17:06:24;;;;;;;1999.90;999.90;;;5.10;99.90;;;;;;4973088;28;20205;-77
2020/12/18 17:08:50;;;;;;;1999.90;999.90;;;5.10;99.90;;;;;;4973389;28;20209;-77
2020/12/18 17:11:17;;;;;;;1999.90;999.90;;;5.10;99.90;;;;;;4972614;28;20225;-77
2020/12/18 17:13:45;;;;;;;1999.90;999.90;;;5.10;99.90;;;;;;4972996;28;20228;-76